Time;durP1;ratioP1;P1;durP2;ratioP2;P2;SDS_P1;SDS_P2;PMS_P1;PMS_P2;Temp;Humidity;BMP_temperature;BMP_pressure;BME280_temperature;BME280_humidity;BME280_pressure;Samples;Min_cycle;Max_cycle;Signal;HPM_P1;HPM_P2
2023/01/16 00:00:19;;;;;;;15.60;14.00;;;;;;;3.25;96.06;96977.92;107257;1285;24284;-89
2023/01/16 00:03:07;;;;;;;19.40;17.70;;;;;;;3.23;95.84;96973.94;107183;1285;24261;-86
2023/01/16 00:05:35;;;;;;;17.30;15.60;;;;;;;3.23;95.91;96971.70;107022;1285;24282;-89
2023/01/16 00:08:03;;;;;;;17.20;15.70;;;;;;;3.13;96.05;96958.66;107047;1284;25444;-86
2023/01/16 00:10:32;;;;;;;23.10;21.20;;;;;;;3.17;96.14;96965.77;106941;1285;22584;-87
2023/01/16 00:13:00;;;;;;;22.10;20.20;;;;;;;3.12;96.01;96965.41;107016;1285;22539;-88
2023/01/16 00:15:28;;;;;;;15.90;14.50;;;;;;;3.06;96.11;96963.31;106693;1265;22544;-90
2023/01/16 00:17:56;;;;;;;19.10;17.30;;;;;;;2.96;95.51;96953.81;106648;1285;22698;-88
2023/01/16 00:20:25;;;;;;;16.60;14.70;;;;;;;2.89;95.47;96950.92;106791;1285;22566;-88
2023/01/16 00:22:53;;;;;;;16.10;14.60;;;;;;;2.86;95.56;96948.91;106852;1285;24163;-86
2023/01/16 00:25:21;;;;;;;16.70;15.20;;;;;;;2.85;95.72;96948.21;107784;1285;22562;-92
2023/01/16 00:27:49;;;;;;;19.10;17.40;;;;;;;2.85;95.69;96947.91;107252;1284;22495;-91
2023/01/16 00:30:19;;;;;;;16.90;15.30;;;;;;;2.79;95.63;96948.94;106784;1285;26035;-91
2023/01/16 00:32:47;;;;;;;21.00;19.00;;;;;;;2.67;95.14;96950.83;108847;1285;22623;-92
2023/01/16 00:36:01;;;;;;;17.60;16.00;;;;;;;2.48;95.48;96947.92;109779;1286;22875;-90
2023/01/16 00:38:29;;;;;;;20.90;18.90;;;;;;;2.38;95.47;96942.95;109762;1286;22378;-91
2023/01/16 00:40:57;;;;;;;15.10;13.70;;;;;;;2.37;95.63;96939.53;109753;1286;22296;-89
2023/01/16 00:43:26;;;;;;;19.20;17.30;;;;;;;2.41;95.89;96947.72;109727;1264;22204;-87
2023/01/16 00:45:56;;;;;;;20.50;18.70;;;;;;;2.43;95.55;96950.52;109737;1288;22276;-90
2023/01/16 00:48:24;;;;;;;19.00;17.40;;;;;;;2.36;95.13;96954.85;109730;1288;22384;-89
2023/01/16 00:50:52;;;;;;;20.00;18.30;;;;;;;2.28;95.38;96953.64;109714;1288;22140;-90
2023/01/16 00:53:21;;;;;;;21.50;19.70;;;;;;;2.19;95.21;96956.73;109725;1288;22147;-88
2023/01/16 00:55:52;;;;;;;20.10;18.30;;;;;;;2.13;95.19;96951.54;109752;1268;22166;-89
2023/01/16 00:58:20;;;;;;;21.00;19.10;;;;;;;2.08;95.40;96954.66;109633;1288;22807;-90
2023/01/16 01:00:49;;;;;;;23.80;21.80;;;;;;;2.04;95.25;96960.25;109740;1288;22619;-90
2023/01/16 01:03:17;;;;;;;19.40;17.70;;;;;;;1.99;95.36;96962.90;109623;1288;22251;-91
2023/01/16 01:05:45;;;;;;;18.50;16.80;;;;;;;1.93;95.23;96963.06;109595;1288;22124;-91
2023/01/16 01:08:13;;;;;;;32.30;29.50;;;;;;;1.87;95.10;96953.61;109635;1288;22153;-89
2023/01/16 01:10:41;;;;;;;22.80;20.90;;;;;;;1.73;94.95;96956.41;109662;1288;22220;-90
2023/01/16 01:13:10;;;;;;;22.00;20.20;;;;;;;1.61;95.26;96955.66;109641;1288;22993;-89
2023/01/16 01:15:38;;;;;;;20.60;18.80;;;;;;;1.56;95.62;96953.23;109731;1288;22130;-87
2023/01/16 01:18:06;;;;;;;19.20;17.20;;;;;;;1.54;95.35;96942.17;109644;1288;22145;-88
2023/01/16 01:20:51;;;;;;;19.50;17.60;;;;;;;1.48;95.28;96941.67;109755;1288;22782;-89
2023/01/16 01:23:20;;;;;;;18.20;16.50;;;;;;;1.42;95.10;96944.48;109771;1288;22926;-91
2023/01/16 01:25:48;;;;;;;20.10;18.30;;;;;;;1.33;95.45;96939.47;109651;1288;22249;-91
2023/01/16 01:28:16;;;;;;;20.70;18.90;;;;;;;1.17;95.37;96937.43;109644;1288;22145;-92
2023/01/16 01:30:44;;;;;;;23.10;21.00;;;;;;;1.06;95.73;96938.67;109720;1288;22212;-90
2023/01/16 01:33:14;;;;;;;25.50;23.20;;;;;;;0.96;95.80;96937.30;109745;1288;22211;-91
2023/01/16 01:35:41;;;;;;;21.30;19.40;;;;;;;0.89;95.75;96927.42;109737;1288;22228;-91
2023/01/16 01:38:09;;;;;;;23.30;21.20;;;;;;;0.85;96.04;96921.90;109743;1288;22187;-90
2023/01/16 01:40:38;;;;;;;27.40;24.80;;;;;;;0.76;96.17;96926.73;109748;1288;22114;-91
2023/01/16 01:43:12;;;;;;;30.40;27.60;;;;;;;0.71;96.20;96927.08;109735;1288;22226;-92
2023/01/16 01:45:45;;;;;;;25.80;23.50;;;;;;;0.69;96.19;96924.90;109637;1288;22247;-91
2023/01/16 01:48:13;;;;;;;26.90;24.60;;;;;;;0.60;96.12;96925.71;109635;1288;22219;-91
2023/01/16 01:50:54;;;;;;;22.60;20.60;;;;;;;0.49;96.01;96925.34;109630;1288;22244;-90
2023/01/16 01:53:41;;;;;;;20.30;18.40;;;;;;;0.45;96.25;96925.32;109728;1288;22209;-91
2023/01/16 01:56:15;;;;;;;21.10;19.20;;;;;;;0.42;95.80;96918.25;109729;1288;23109;-91
2023/01/16 01:58:49;;;;;;;23.00;20.90;;;;;;;0.40;95.99;96914.75;109619;1288;22196;-92
2023/01/16 02:01:16;;;;;;;24.80;22.50;;;;;;;0.42;96.05;96913.81;109743;1288;22826;-92
2023/01/16 02:06:54;;;;;;;24.40;21.90;;;;;;;0.20;96.29;96910.76;109774;1287;22194;-91
2023/01/16 02:09:25;;;;;;;20.60;18.80;;;;;;;0.19;96.54;96905.67;109797;1287;22845;-91
2023/01/16 02:12:00;;;;;;;21.90;20.00;;;;;;;0.13;96.62;96902.41;109806;1287;22873;-92
2023/01/16 02:14:32;;;;;;;21.50;19.10;;;;;;;0.09;96.59;96894.48;109860;1287;22266;-94
2023/01/16 02:20:22;;;;;;;29.20;26.70;;;;;;;0.08;96.76;96885.31;109858;1287;22924;-93
2023/01/16 02:23:15;;;;;;;29.90;27.50;;;;;;;0.10;96.79;96885.81;109826;1287;22247;-94
2023/01/16 02:26:08;;;;;;;24.30;22.20;;;;;;;0.08;96.50;96881.61;109822;1280;22236;-92
2023/01/16 02:31:37;;;;;;;22.30;20.30;;;;;;;0.05;96.48;96874.02;109877;1285;22282;-91
2023/01/16 02:34:11;;;;;;;23.70;21.70;;;;;;;0.03;96.45;96873.05;109907;1285;22258;-91
2023/01/16 02:36:57;;;;;;;24.50;22.30;;;;;;;0.00;96.75;96878.50;109930;1282;22158;-93
2023/01/16 02:39:44;;;;;;;24.00;22.00;;;;;;;-0.07;97.23;96880.46;109876;1285;22262;-92
2023/01/16 02:42:15;;;;;;;20.20;18.40;;;;;;;-0.16;97.65;96881.25;109819;1285;22167;-91
2023/01/16 02:44:59;;;;;;;25.80;23.60;;;;;;;-0.22;97.48;96877.14;109816;1285;22111;-92
2023/01/16 02:47:31;;;;;;;20.30;18.50;;;;;;;-0.17;97.43;96875.00;109830;1286;22223;-91
2023/01/16 02:50:16;;;;;;;23.60;21.40;;;;;;;-0.13;97.16;96872.58;109830;1286;22231;-90
2023/01/16 02:52:57;;;;;;;24.60;22.50;;;;;;;-0.14;97.03;96879.94;109815;1286;22954;-90
2023/01/16 02:55:33;;;;;;;28.80;26.50;;;;;;;-0.20;96.96;96880.73;109832;1286;22398;-91
2023/01/16 02:58:05;;;;;;;26.60;24.30;;;;;;;-0.25;97.09;96879.28;109811;1286;22947;-90
2023/01/16 03:00:34;;;;;;;27.00;24.50;;;;;;;-0.25;97.22;96878.70;109785;1286;22161;-92
2023/01/16 03:03:03;;;;;;;25.00;22.70;;;;;;;-0.19;97.08;96879.11;109863;1286;22160;-91
2023/01/16 03:05:45;;;;;;;25.00;22.80;;;;;;;-0.16;96.91;96881.24;109748;1286;22220;-92
2023/01/16 03:08:32;;;;;;;28.10;25.70;;;;;;;-0.14;96.70;96880.98;109838;1286;22213;-92
2023/01/16 03:11:22;;;;;;;28.90;26.30;;;;;;;-0.15;96.94;96878.29;109835;1286;22313;-90
2023/01/16 03:14:08;;;;;;;31.70;28.80;;;;;;;-0.26;96.94;96874.40;109818;1286;22196;-89
2023/01/16 03:16:59;;;;;;;24.40;22.20;;;;;;;-0.34;97.07;96872.81;109875;1286;22228;-90
2023/01/16 03:19:43;;;;;;;30.10;27.50;;;;;;;-0.35;96.87;96868.14;109873;1286;22123;-91
2023/01/16 03:22:35;;;;;;;31.30;28.70;;;;;;;-0.27;97.33;96861.36;109813;1286;22475;-92
2023/01/16 03:25:42;;;;;;;29.50;26.90;;;;;;;-0.18;97.28;96858.72;109865;1286;22225;-92
2023/01/16 03:28:23;;;;;;;31.30;28.50;;;;;;;-0.23;96.96;96858.85;109871;1286;22121;-90
2023/01/16 03:31:05;;;;;;;36.90;33.90;;;;;;;-0.26;97.17;96860.70;109830;1286;22186;-91
2023/01/16 03:33:52;;;;;;;28.70;26.20;;;;;;;-0.28;97.31;96861.52;109869;1286;22828;-91
2023/01/16 03:36:27;;;;;;;24.30;22.10;;;;;;;-0.21;97.54;96860.93;109877;1264;22127;-91
2023/01/16 03:38:58;;;;;;;24.40;22.30;;;;;;;-0.23;96.99;96859.17;109854;1286;22268;-90
2023/01/16 03:41:29;;;;;;;25.80;23.50;;;;;;;-0.30;97.46;96853.57;109847;1286;22303;-91
2023/01/16 03:44:02;;;;;;;26.80;24.50;;;;;;;-0.35;97.60;96856.55;109830;1286;22239;-90
2023/01/16 03:46:35;;;;;;;56.50;51.90;;;;;;;-0.41;97.47;96851.85;109814;1286;22187;-90
2023/01/16 03:49:24;;;;;;;34.90;31.70;;;;;;;-0.37;97.84;96854.21;109748;1286;22255;-89
2023/01/16 03:51:59;;;;;;;26.30;24.00;;;;;;;-0.30;98.13;96855.31;109842;1286;23231;-90
2023/01/16 03:54:39;;;;;;;26.20;24.00;;;;;;;-0.15;98.35;96856.42;109922;1286;22224;-90
2023/01/16 03:57:18;;;;;;;24.40;22.20;;;;;;;0.01;98.35;96851.75;109983;1286;22273;-89
2023/01/16 03:59:48;;;;;;;23.40;21.50;;;;;;;0.16;98.31;96850.29;110017;1286;22112;-89
2023/01/16 04:02:34;;;;;;;26.60;24.30;;;;;;;0.26;98.04;96846.48;109987;1286;22194;-88
2023/01/16 04:05:17;;;;;;;35.70;32.50;;;;;;;0.35;98.10;96843.23;109929;1286;22192;-91
2023/01/16 04:07:57;;;;;;;28.30;25.90;;;;;;;0.43;98.20;96841.14;109867;1285;22184;-91
2023/01/16 04:10:30;;;;;;;23.20;21.10;;;;;;;0.52;98.07;96842.02;109880;1286;22842;-91
2023/01/16 04:13:05;;;;;;;21.10;19.10;;;;;;;0.62;97.91;96839.29;109918;1286;22266;-92
2023/01/16 04:15:34;;;;;;;;;;;;;;;0.66;97.59;96831.51;109900;1286;23216;-93
2023/01/16 04:18:03;;;;;;;24.60;22.60;;;;;;;0.60;97.86;96827.73;109811;1286;22205;-90
2023/01/16 04:20:32;;;;;;;28.20;25.70;;;;;;;0.46;98.58;96823.13;109866;1286;22229;-91
2023/01/16 04:23:00;;;;;;;19.80;18.10;;;;;;;0.36;99.17;96821.83;109877;1286;22222;-91
2023/01/16 04:25:28;;;;;;;19.70;17.40;;;;;;;0.40;99.55;96825.64;109766;1282;22256;-91
2023/01/16 04:27:57;;;;;;;19.20;17.40;;;;;;;0.49;99.72;96822.19;109823;1286;22234;-92
2023/01/16 04:30:25;;;;;;;19.20;17.50;;;;;;;0.60;99.80;96816.13;109801;1286;22169;-91
2023/01/16 04:32:52;;;;;;;20.70;18.90;;;;;;;0.69;99.64;96807.17;109866;1286;22221;-92
2023/01/16 04:35:21;;;;;;;18.00;16.40;;;;;;;0.73;99.64;96801.47;109882;1286;22203;-90
2023/01/16 04:37:49;;;;;;;19.10;17.30;;;;;;;0.80;99.51;96798.45;109877;1264;22239;-91
2023/01/16 04:40:17;;;;;;;19.40;17.60;;;;;;;0.88;99.14;96803.67;109834;1286;22125;-91
2023/01/16 04:42:47;;;;;;;20.30;18.50;;;;;;;0.92;98.99;96802.51;109902;1286;22152;-92
2023/01/16 04:45:16;;;;;;;20.50;18.70;;;;;;;0.96;98.84;96798.38;109901;1286;22227;-91
2023/01/16 04:47:48;;;;;;;23.60;21.40;;;;;;;1.00;99.32;96784.43;109862;1286;22764;-92
2023/01/16 04:50:17;;;;;;;23.40;21.40;;;;;;;1.04;99.21;96775.46;109807;1286;22309;-89
2023/01/16 04:52:46;;;;;;;23.10;21.20;;;;;;;1.09;98.99;96766.08;109804;1286;22135;-90
2023/01/16 04:55:14;;;;;;;22.00;20.10;;;;;;;1.15;98.93;96754.52;109905;1286;22227;-90
2023/01/16 05:01:09;;;;;;;26.30;24.00;;;;;;;1.27;98.82;96755.73;109889;1285;22200;-89
2023/01/16 05:03:37;;;;;;;26.20;23.90;;;;;;;1.29;98.81;96760.71;109960;1278;22225;-90
2023/01/16 05:06:07;;;;;;;25.70;23.30;;;;;;;1.27;98.56;96767.94;109893;1286;22453;-91
2023/01/16 05:08:35;;;;;;;24.90;22.40;;;;;;;1.29;98.39;96766.70;109867;1286;22665;-93
2023/01/16 05:11:03;;;;;;;23.30;21.20;;;;;;;1.36;98.78;96757.79;109981;1283;22227;-94
2023/01/16 05:13:31;;;;;;;36.30;33.10;;;;;;;1.44;98.59;96754.44;109898;1286;22227;-93
2023/01/16 05:15:59;;;;;;;36.50;33.40;;;;;;;1.48;98.41;96749.55;109949;1286;22201;-92
2023/01/16 05:18:28;;;;;;;34.40;31.30;;;;;;;1.49;98.42;96746.77;109956;1286;22144;-92
2023/01/16 05:20:56;;;;;;;35.00;31.70;;;;;;;1.50;98.13;96743.69;109911;1286;22428;-94
2023/01/16 05:23:24;;;;;;;30.30;27.40;;;;;;;1.51;98.20;96739.40;109933;1286;22216;-94
2023/01/16 05:25:53;;;;;;;28.10;25.50;;;;;;;1.53;98.34;96736.79;109947;1286;22176;-94
2023/01/16 05:28:21;;;;;;;26.50;24.10;;;;;;;1.56;98.22;96739.48;109946;1283;22287;-93
2023/01/16 05:30:49;;;;;;;30.30;27.60;;;;;;;1.60;97.71;96742.94;109962;1286;22179;-93
2023/01/16 05:33:18;;;;;;;35.70;32.50;;;;;;;1.62;97.83;96740.48;109943;1286;22130;-94
2023/01/16 05:35:46;;;;;;;36.90;33.70;;;;;;;1.60;97.69;96735.50;109936;1286;22154;-94
2023/01/16 05:38:15;;;;;;;27.10;24.80;;;;;;;1.54;97.39;96735.15;109872;1286;22219;-90
2023/01/16 05:40:44;;;;;;;31.60;28.90;;;;;;;1.47;97.36;96735.36;109680;1286;22247;-92
2023/01/16 05:43:13;;;;;;;27.20;24.60;;;;;;;1.41;97.24;96735.27;109806;1286;22295;-91
2023/01/16 05:45:41;;;;;;;25.80;23.20;;;;;;;1.41;97.16;96740.15;109798;1286;22274;-91
2023/01/16 05:48:09;;;;;;;28.90;26.20;;;;;;;1.42;97.29;96733.46;109821;1286;22281;-90
2023/01/16 05:50:37;;;;;;;32.00;29.30;;;;;;;1.40;97.24;96730.92;109781;1286;22162;-88
2023/01/16 05:53:05;;;;;;;39.60;36.50;;;;;;;1.35;97.27;96729.17;109910;1286;22274;-89
2023/01/16 05:55:45;;;;;;;47.80;43.80;;;;;;;1.29;97.49;96733.90;109978;1286;22227;-89
2023/01/16 05:58:15;;;;;;;51.10;46.70;;;;;;;1.23;97.16;96729.02;109958;1286;22144;-90
2023/01/16 06:00:43;;;;;;;41.80;38.10;;;;;;;1.23;97.54;96726.22;109912;1286;22871;-92
2023/01/16 06:03:11;;;;;;;46.40;42.20;;;;;;;1.22;97.22;96725.31;109843;1286;22195;-93
2023/01/16 06:05:39;;;;;;;36.10;32.90;;;;;;;1.21;97.08;96725.86;109818;1269;23044;-91
2023/01/16 06:08:07;;;;;;;31.10;28.40;;;;;;;1.24;97.41;96725.00;109806;1286;22173;-91
2023/01/16 06:10:35;;;;;;;29.40;26.80;;;;;;;1.27;97.75;96722.39;109767;1286;22151;-91
2023/01/16 06:13:03;;;;;;;27.80;25.30;;;;;;;1.28;97.71;96718.03;109784;1286;22132;-88
2023/01/16 06:15:31;;;;;;;26.60;24.10;;;;;;;1.23;97.14;96716.29;109752;1286;22202;-88
2023/01/16 06:17:59;;;;;;;25.80;23.60;;;;;;;1.20;97.22;96709.45;109739;1280;22145;-87
2023/01/16 06:20:27;;;;;;;32.90;30.20;;;;;;;1.24;97.33;96705.98;109811;1286;22170;-89
2023/01/16 06:22:55;;;;;;;31.60;28.90;;;;;;;1.29;97.32;96704.34;109817;1286;22422;-90
2023/01/16 06:25:23;;;;;;;36.10;32.90;;;;;;;1.29;97.44;96704.39;109776;1286;22226;-89
2023/01/16 06:27:52;;;;;;;46.60;42.60;;;;;;;1.30;97.55;96699.56;109787;1286;22233;-93
2023/01/16 06:30:21;;;;;;;39.50;36.10;;;;;;;1.29;97.41;96702.17;109824;1286;22380;-92
2023/01/16 06:32:50;;;;;;;31.70;28.90;;;;;;;1.33;97.48;96701.80;109892;1286;22234;-93
2023/01/16 06:35:18;;;;;;;35.00;31.30;;;;;;;1.35;97.43;96699.61;109799;1286;22209;-90
2023/01/16 06:37:46;;;;;;;33.80;31.00;;;;;;;1.38;97.05;96698.86;109812;1286;22294;-93
2023/01/16 06:40:14;;;;;;;35.70;32.60;;;;;;;1.39;97.06;96694.83;109750;1286;23123;-91
2023/01/16 06:42:42;;;;;;;32.40;29.70;;;;;;;1.39;97.07;96688.55;109867;1286;22198;-91
2023/01/16 06:45:10;;;;;;;32.00;29.10;;;;;;;1.34;96.85;96691.27;109833;1286;22904;-91
2023/01/16 06:47:38;;;;;;;33.90;30.90;;;;;;;1.25;96.68;96690.70;109856;1286;22224;-88
2023/01/16 06:50:07;;;;;;;35.90;32.70;;;;;;;1.20;96.78;96686.36;109787;1286;22212;-87
2023/01/16 06:52:35;;;;;;;29.40;26.80;;;;;;;1.23;97.08;96687.69;109816;1286;22121;-90
2023/01/16 06:55:04;;;;;;;36.10;33.00;;;;;;;1.25;96.80;96685.77;109838;1286;22266;-89
2023/01/16 06:57:35;;;;;;;31.80;28.90;;;;;;;1.26;96.92;96684.02;109792;1286;22246;-92
2023/01/16 07:00:04;;;;;;;34.50;31.60;;;;;;;1.25;96.80;96681.73;109698;1286;22356;-88
2023/01/16 07:02:32;;;;;;;35.60;32.70;;;;;;;1.23;96.86;96679.09;109787;1286;22370;-88
2023/01/16 07:05:00;;;;;;;27.80;25.30;;;;;;;1.21;97.12;96678.45;109793;1286;23450;-87
2023/01/16 07:07:28;;;;;;;28.40;25.90;;;;;;;1.22;97.23;96673.09;109767;1286;23320;-90
2023/01/16 07:09:56;;;;;;;29.90;27.10;;;;;;;1.27;97.01;96668.84;109773;1286;22369;-88
2023/01/16 07:12:24;;;;;;;27.30;25.00;;;;;;;1.34;97.07;96672.65;109812;1286;22847;-89
2023/01/16 07:23:26;;;;;;;28.80;26.10;;;;;;;1.40;97.27;96679.48;109784;1286;22829;-89
2023/01/16 07:25:56;;;;;;;26.80;24.40;;;;;;;1.45;97.57;96679.42;109762;1286;22202;-85
2023/01/16 07:28:25;;;;;;;27.00;24.40;;;;;;;1.51;97.14;96674.73;109781;1286;23125;-85
2023/01/16 07:30:56;;;;;;;27.10;24.60;;;;;;;1.57;97.02;96672.37;109783;1286;22330;-86
2023/01/16 07:33:24;;;;;;;25.10;22.90;;;;;;;1.60;96.87;96671.94;109776;1286;22231;-84
2023/01/16 07:35:52;;;;;;;26.10;23.50;;;;;;;1.61;96.87;96671.76;109788;1283;22213;-85
2023/01/16 07:38:20;;;;;;;25.30;23.20;;;;;;;1.60;97.09;96669.45;109773;1286;22383;-84
2023/01/16 07:40:48;;;;;;;23.50;21.40;;;;;;;1.61;97.20;96669.12;109778;1286;22285;-85
2023/01/16 07:43:16;;;;;;;24.40;22.30;;;;;;;1.63;96.98;96661.83;109765;1286;22408;-85
2023/01/16 07:45:48;;;;;;;27.20;24.70;;;;;;;1.68;97.14;96662.83;109787;1286;22271;-85
2023/01/16 07:48:16;;;;;;;23.10;21.10;;;;;;;1.71;97.00;96658.24;109778;1286;22281;-85
2023/01/16 07:50:52;;;;;;;26.10;23.70;;;;;;;1.75;97.09;96658.77;109792;1286;22264;-86
2023/01/16 07:53:23;;;;;;;28.50;26.20;;;;;;;1.81;97.33;96658.30;109873;1278;22219;-85
2023/01/16 07:55:57;;;;;;;27.30;25.00;;;;;;;1.83;97.26;96654.59;109860;1286;22143;-86
2023/01/16 07:58:27;;;;;;;25.50;23.30;;;;;;;1.84;97.23;96648.41;109799;1286;22247;-85
2023/01/16 08:00:56;;;;;;;20.10;18.40;;;;;;;1.86;97.28;96644.21;109711;1286;22311;-85
2023/01/16 08:03:25;;;;;;;19.40;17.60;;;;;;;1.92;97.32;96640.20;109719;1269;22367;-84
2023/01/16 08:05:57;;;;;;;17.80;16.10;;;;;;;1.99;97.23;96636.23;109700;1286;23080;-85
2023/01/16 08:08:30;;;;;;;19.00;17.30;;;;;;;2.07;97.11;96628.16;109762;1286;22223;-85
2023/01/16 08:11:35;;;;;;;20.60;18.70;;;;;;;2.12;97.26;96621.05;109745;1286;23256;-85
2023/01/16 08:13:48;;;;;;;23.40;21.30;;;;;;;2.14;97.16;96621.31;109696;1286;22226;-85
2023/01/16 08:16:16;;;;;;;21.00;19.00;;;;;;;2.13;97.21;96615.36;109685;1286;23033;-85
2023/01/16 08:18:48;;;;;;;19.60;17.70;;;;;;;2.15;97.20;96609.79;109791;1286;22230;-86
2023/01/16 08:21:16;;;;;;;18.70;16.90;;;;;;;2.20;97.14;96604.53;109749;1286;23547;-86
2023/01/16 08:23:45;;;;;;;20.60;18.60;;;;;;;2.23;97.06;96597.23;109592;1286;22280;-86
2023/01/16 08:26:13;;;;;;;21.30;19.10;;;;;;;2.25;97.49;96592.23;109741;1286;22228;-87
2023/01/16 08:28:44;;;;;;;21.50;19.40;;;;;;;2.26;97.38;96591.42;109783;1286;22282;-86
2023/01/16 08:31:13;;;;;;;18.80;17.00;;;;;;;2.27;97.35;96591.67;109777;1286;22871;-86
2023/01/16 08:33:43;;;;;;;18.30;16.50;;;;;;;2.28;97.33;96585.07;109800;1286;22326;-86
2023/01/16 08:36:13;;;;;;;23.70;21.20;;;;;;;2.34;97.32;96583.86;109784;1274;22251;-86
2023/01/16 08:38:40;;;;;;;24.30;21.90;;;;;;;2.42;97.63;96581.78;109818;1286;22157;-86
2023/01/16 08:52:20;;;;;;;23.40;21.30;;;;;;;2.73;97.56;96561.52;109789;1286;22220;-86
2023/01/16 08:54:48;;;;;;;25.70;23.30;;;;;;;2.81;97.45;96559.16;109789;1286;22145;-86
2023/01/16 08:57:16;;;;;;;21.10;19.20;;;;;;;2.87;97.63;96559.35;109790;1286;22263;-86
2023/01/16 08:59:44;;;;;;;22.00;20.10;;;;;;;2.92;97.32;96557.75;109765;1286;22269;-86
2023/01/16 09:02:14;;;;;;;18.60;16.70;;;;;;;2.94;97.18;96553.70;109812;1286;22282;-86
2023/01/16 09:04:44;;;;;;;18.50;16.70;;;;;;;2.97;97.45;96552.27;109727;1286;22247;-87
2023/01/16 09:07:12;;;;;;;16.50;14.80;;;;;;;3.02;97.40;96546.16;109817;1283;23079;-86
2023/01/16 09:09:43;;;;;;;18.00;16.20;;;;;;;3.11;97.57;96539.89;109786;1286;22927;-87
2023/01/16 09:14:59;;;;;;;18.40;16.70;;;;;;;3.18;97.01;96527.30;109788;1286;23015;-85
2023/01/16 09:17:27;;;;;;;17.60;16.10;;;;;;;3.17;96.99;96528.69;109782;1286;22142;-85
2023/01/16 09:19:55;;;;;;;16.60;15.00;;;;;;;3.15;97.03;96522.65;109724;1286;23055;-85
2023/01/16 09:22:26;;;;;;;17.50;15.80;;;;;;;3.16;97.04;96518.65;109718;1286;22221;-85
2023/01/16 09:24:54;;;;;;;16.20;14.70;;;;;;;3.17;97.21;96507.34;109787;1282;22196;-85
2023/01/16 09:27:24;;;;;;;14.30;12.90;;;;;;;3.23;96.84;96503.55;109740;1286;22204;-85
2023/01/16 09:29:52;;;;;;;14.50;13.10;;;;;;;3.22;96.80;96498.66;109786;1286;22313;-85
2023/01/16 09:32:20;;;;;;;15.20;13.70;;;;;;;3.20;96.84;96489.63;109730;1286;22243;-85
2023/01/16 09:34:48;;;;;;;13.30;12.10;;;;;;;3.16;96.58;96484.68;109781;1267;22257;-85
2023/01/16 09:37:17;;;;;;;13.30;12.00;;;;;;;3.15;96.39;96479.38;109734;1286;22240;-85
2023/01/16 09:39:45;;;;;;;13.50;12.20;;;;;;;3.18;96.66;96472.41;109748;1286;22214;-85
2023/01/16 09:45:29;;;;;;;13.60;12.30;;;;;;;3.27;96.74;96447.65;109776;1286;22178;-85
2023/01/16 09:48:04;;;;;;;12.80;11.50;;;;;;;3.29;96.86;96440.44;109736;1286;22218;-85
2023/01/16 09:50:50;;;;;;;12.40;11.20;;;;;;;3.34;96.73;96434.29;109772;1286;22134;-86
2023/01/16 09:59:23;;;;;;;11.40;10.30;;;;;;;3.67;96.69;96421.73;109782;1280;22187;-85
2023/01/16 10:02:25;;;;;;;12.40;11.20;;;;;;;3.79;96.45;96410.39;109735;1286;22842;-85
2023/01/16 10:04:55;;;;;;;11.30;10.20;;;;;;;3.89;96.30;96401.23;109794;1286;22240;-86
2023/01/16 10:07:38;;;;;;;10.70;9.70;;;;;;;3.95;96.14;96394.64;109735;1286;22207;-86
2023/01/16 10:10:12;;;;;;;11.30;10.20;;;;;;;4.06;96.29;96387.77;109771;1286;22282;-85
2023/01/16 10:13:06;;;;;;;12.20;10.90;;;;;;;4.18;96.17;96383.68;109785;1286;22220;-85
2023/01/16 10:15:41;;;;;;;10.60;9.60;;;;;;;4.30;96.00;96384.25;109679;1286;22200;-85
2023/01/16 10:18:22;;;;;;;12.30;11.10;;;;;;;4.37;95.92;96382.79;109774;1286;22203;-86
2023/01/16 10:21:11;;;;;;;14.90;13.50;;;;;;;4.45;96.27;96370.84;109790;1286;22220;-85
2023/01/16 10:24:06;;;;;;;17.50;15.70;;;;;;;4.51;95.37;96365.89;109786;1286;23001;-85
2023/01/16 10:26:57;;;;;;;13.60;12.40;;;;;;;4.57;95.04;96363.91;109732;1286;22114;-85
2023/01/16 10:29:30;;;;;;;12.30;11.10;;;;;;;4.60;94.95;96358.39;109786;1286;22213;-85
2023/01/16 10:32:18;;;;;;;14.30;12.40;;;;;;;4.68;95.23;96359.20;109778;1286;22216;-85
2023/01/16 10:34:55;;;;;;;12.40;11.10;;;;;;;4.77;95.08;96356.56;109774;1286;22978;-85
2023/01/16 10:37:24;;;;;;;13.00;11.80;;;;;;;4.83;94.66;96348.52;109785;1286;22310;-85
2023/01/16 10:39:54;;;;;;;13.40;12.20;;;;;;;4.82;94.36;96340.56;109790;1286;22390;-85
2023/01/16 10:51:02;;;;;;;23.70;21.70;;;;;;;4.60;93.56;96307.61;109828;1286;22213;-83
2023/01/16 10:53:32;;;;;;;29.40;26.80;;;;;;;4.59;93.41;96294.08;109778;1286;22382;-84
2023/01/16 10:56:01;;;;;;;25.60;23.40;;;;;;;4.60;93.59;96286.54;109757;1286;22152;-84
2023/01/16 10:58:40;;;;;;;20.30;18.50;;;;;;;4.63;93.71;96290.10;109698;1274;22173;-84
2023/01/16 11:01:15;;;;;;;10.90;9.90;;;;;;;4.68;93.42;96285.95;109728;1286;22207;-85
2023/01/16 11:03:47;;;;;;;11.20;9.30;;;;;;;4.75;93.29;96271.77;109712;1286;22315;-85
2023/01/16 11:06:20;;;;;;;10.70;9.30;;;;;;;4.88;93.60;96267.09;109787;1286;22215;-85
2023/01/16 11:08:55;;;;;;;8.40;7.60;;;;;;;5.08;93.74;96265.66;109714;1286;22131;-85
2023/01/16 11:20:18;;;;;;;11.20;10.10;;;;;;;5.43;92.41;96249.91;109776;1286;22260;-85
2023/01/16 11:22:58;;;;;;;11.00;9.90;;;;;;;5.48;91.93;96244.89;109713;1286;23030;-85
2023/01/16 11:25:28;;;;;;;11.10;9.50;;;;;;;5.60;92.35;96239.64;109713;1286;22154;-85
2023/01/16 11:27:58;;;;;;;11.90;10.80;;;;;;;5.75;91.78;96232.06;109779;1286;22258;-85
2023/01/16 11:30:33;;;;;;;11.90;10.60;;;;;;;5.88;91.36;96223.00;109771;1285;22202;-85
2023/01/16 11:33:07;;;;;;;12.90;11.30;;;;;;;6.11;90.69;96216.25;109628;1286;162395;-86
2023/01/16 11:35:36;;;;;;;12.60;11.30;;;;;;;6.19;90.45;96209.15;109855;1286;22018;-85
2023/01/16 11:38:06;;;;;;;13.50;12.20;;;;;;;6.10;89.89;96201.49;109823;1286;22220;-85
2023/01/16 11:40:43;;;;;;;13.90;12.70;;;;;;;6.03;89.75;96199.83;109776;1286;22966;-85
2023/01/16 11:46:11;;;;;;;13.40;12.20;;;;;;;6.03;88.70;96174.23;109747;1286;22217;-85
2023/01/16 11:48:44;;;;;;;12.80;11.60;;;;;;;6.12;88.67;96167.10;109727;1286;23153;-85
2023/01/16 11:51:18;;;;;;;12.50;10.20;;;;;;;6.18;88.44;96161.80;109802;1286;22328;-85
2023/01/16 11:53:47;;;;;;;12.20;11.00;;;;;;;6.25;88.50;96157.70;109659;1286;22249;-86
2023/01/16 11:56:27;;;;;;;10.30;9.30;;;;;;;6.28;87.66;96152.84;109781;1286;22299;-85
2023/01/16 11:59:10;;;;;;;11.80;10.70;;;;;;;6.19;86.78;96147.55;109698;1283;22229;-86
2023/01/16 12:02:24;;;;;;;11.90;10.80;;;;;;;6.19;86.36;96141.60;109794;1286;22297;-85
2023/01/16 12:04:34;;;;;;;10.00;9.10;;;;;;;6.09;86.35;96136.79;109688;1286;22381;-86
2023/01/16 12:07:12;;;;;;;14.70;13.30;;;;;;;5.99;85.92;96130.34;109720;1286;22315;-85
2023/01/16 12:09:58;;;;;;;13.90;12.30;;;;;;;5.99;86.04;96121.66;109789;1286;22218;-86
2023/01/16 12:15:53;;;;;;;11.50;10.10;;;;;;;6.71;86.07;96115.49;109719;1286;22136;-85
2023/01/16 12:18:31;;;;;;;10.40;9.30;;;;;;;8.35;85.17;96111.64;109792;1286;23410;-85
2023/01/16 12:21:02;;;;;;;11.40;10.20;;;;;;;9.72;83.45;96105.48;109798;1283;22244;-85
2023/01/16 12:23:45;;;;;;;12.10;11.00;;;;;;;10.67;83.51;96094.23;109716;1286;22206;-86
2023/01/16 12:26:29;;;;;;;13.20;12.00;;;;;;;11.76;83.12;96093.40;109788;1286;22211;-86
2023/01/16 12:29:15;;;;;;;12.80;11.20;;;;;;;12.26;82.58;96088.35;109703;1286;22894;-85
2023/01/16 12:32:07;;;;;;;11.80;10.40;;;;;;;12.39;78.40;96089.02;109823;1286;22962;-87
2023/01/16 12:34:56;;;;;;;10.40;9.40;;;;;;;11.88;76.31;96079.89;109854;1286;22155;-86
2023/01/16 12:38:01;;;;;;;12.20;11.00;;;;;;;11.50;75.50;96076.20;109826;1286;22209;-86
2023/01/16 12:40:48;;;;;;;11.70;10.50;;;;;;;11.02;75.43;96067.15;109843;1286;22257;-87
2023/01/16 12:43:23;;;;;;;14.10;12.70;;;;;;;10.92;75.61;96061.36;109802;1286;22239;-86
2023/01/16 12:45:57;;;;;;;12.90;11.60;;;;;;;9.94;75.49;96066.76;109802;1286;22723;-86
2023/01/16 12:48:50;;;;;;;12.90;11.70;;;;;;;9.36;76.28;96064.81;109790;1286;23099;-85
2023/01/16 12:51:39;;;;;;;12.20;11.00;;;;;;;8.89;74.56;96068.66;109797;1286;22322;-85